Orumieh, Iran
Current Conditions -  °F | °C
As of 7:00 PM on Thursday 29 Jan 2015 (Local Time) from OITR Reporting Station
Scattered Clouds Scattered Clouds  
Wind Chill: 38°   Ceiling: Unl
Heat Index: 41°   Visibility: 6mi
Dew Point: 18°   Wind: 5mph
Humidity: 39%   Direction: 270°W
Pressure: 29.91"   Gusts: NA
Location:  37.53°N, 45.08°E
Report Text: OITR 291600Z 27004KT 9999 FEW035 SCT170 05/M08 Q1013
Loading
Personal Weather Stations






























Interactive Weather Map New forecast layout! Learn more

10-Day Weather Forecast

Advertisements
Track Severe Weather on mobile